Time;durP1;ratioP1;P1;durP2;ratioP2;P2;SDS_P1;SDS_P2;PMS_P1;PMS_P2;Temp;Humidity;BMP_temperature;BMP_pressure;BME280_temperature;BME280_humidity;BME280_pressure;Samples;Min_cycle;Max_cycle;Signal;HPM_P1;HPM_P2
2022/02/14 00:01:52;;;;;;;9.73;6.07;;;6.60;92.30;;;;;;4998044;28;20532;-63
2022/02/14 00:04:17;;;;;;;9.68;5.97;;;6.60;92.30;;;;;;4994809;28;20059;-63
2022/02/14 00:06:43;;;;;;;10.13;5.57;;;6.60;92.30;;;;;;4994203;28;20367;-63
2022/02/14 00:09:08;;;;;;;10.50;5.97;;;6.60;92.30;;;;;;4994541;28;20414;-63
2022/02/14 00:11:34;;;;;;;14.85;6.78;;;6.60;92.30;;;;;;5006661;28;20084;-63
2022/02/14 00:13:59;;;;;;;8.98;5.68;;;6.60;92.30;;;;;;5014302;28;20573;-63
2022/02/14 00:16:25;;;;;;;7.35;4.63;;;6.70;92.30;;;;;;5010506;28;20026;-63
2022/02/14 00:18:50;;;;;;;7.30;5.22;;;6.60;92.20;;;;;;5006253;28;20401;-63
2022/02/14 00:21:16;;;;;;;9.23;5.57;;;6.70;92.20;;;;;;5008497;28;20073;-63
2022/02/14 00:23:41;;;;;;;7.55;4.85;;;6.60;92.10;;;;;;5013612;28;20548;-64
2022/02/14 00:26:07;;;;;;;10.23;5.32;;;6.70;92.10;;;;;;5008462;28;20077;-64
2022/02/14 00:28:32;;;;;;;8.90;4.85;;;6.70;92.10;;;;;;5013792;28;20113;-63
2022/02/14 00:30:58;;;;;;;7.55;4.85;;;6.60;92.10;;;;;;5004885;28;20385;-63
2022/02/14 00:33:24;;;;;;;7.63;5.28;;;6.70;92.10;;;;;;5013713;28;20109;-64
2022/02/14 00:35:50;;;;;;;10.43;5.05;;;6.70;92.10;;;;;;5002797;28;20029;-63
2022/02/14 00:38:16;;;;;;;10.07;4.95;;;6.70;92.00;;;;;;4993123;28;20023;-63
2022/02/14 00:40:41;;;;;;;8.00;5.35;;;6.70;92.00;;;;;;4999266;28;20038;-63
2022/02/14 00:43:07;;;;;;;10.55;5.07;;;6.80;92.00;;;;;;5013456;28;20034;-62
2022/02/14 00:45:33;;;;;;;10.90;5.55;;;6.80;91.90;;;;;;5005842;28;20026;-64
2022/02/14 00:47:58;;;;;;;8.95;4.55;;;6.90;91.90;;;;;;4993969;28;20053;-63
2022/02/14 00:50:25;;;;;;;9.23;4.50;;;6.90;91.90;;;;;;4994439;28;20590;-63
2022/02/14 00:52:50;;;;;;;9.57;4.50;;;6.90;91.90;;;;;;5002135;28;20529;-64
2022/02/14 00:55:17;;;;;;;8.30;4.65;;;6.90;91.80;;;;;;5011969;28;20160;-64
2022/02/14 00:57:43;;;;;;;8.27;4.60;;;6.90;91.70;;;;;;5013308;28;20025;-63
2022/02/14 01:00:13;;;;;;;6.63;4.38;;;6.90;91.70;;;;;;4993160;28;20038;-64
2022/02/14 01:02:39;;;;;;;7.97;4.55;;;6.90;91.70;;;;;;4998906;28;20056;-62
2022/02/14 01:05:06;;;;;;;9.57;4.50;;;7.00;91.70;;;;;;5011684;28;20026;-63
2022/02/14 01:07:32;;;;;;;9.95;5.13;;;6.90;91.70;;;;;;5007436;28;20038;-64
2022/02/14 01:09:57;;;;;;;7.78;4.30;;;6.90;91.70;;;;;;4993515;28;20026;-63
2022/02/14 01:12:25;;;;;;;7.15;4.20;;;6.90;91.80;;;;;;4994182;28;20022;-63
2022/02/14 01:14:51;;;;;;;10.52;5.10;;;6.90;91.60;;;;;;4991862;28;20419;-63
2022/02/14 01:17:17;;;;;;;10.23;4.55;;;6.80;91.70;;;;;;5005977;28;20057;-63
2022/02/14 01:19:43;;;;;;;8.13;5.35;;;6.80;91.60;;;;;;5006356;28;20026;-62
2022/02/14 01:22:09;;;;;;;9.57;4.45;;;6.80;91.60;;;;;;5004906;28;20037;-62
2022/02/14 01:24:35;;;;;;;10.10;5.05;;;6.80;91.60;;;;;;5004547;28;20025;-63
2022/02/14 01:27:04;;;;;;;8.30;4.45;;;6.80;91.60;;;;;;5000551;28;20034;-63
2022/02/14 01:29:32;;;;;;;10.05;5.00;;;6.70;91.50;;;;;;4992970;28;20038;-63
2022/02/14 01:31:57;;;;;;;7.65;4.50;;;6.70;91.50;;;;;;5007345;28;20030;-64
2022/02/14 01:34:23;;;;;;;8.48;4.63;;;6.60;91.70;;;;;;5012452;28;20096;-64
2022/02/14 01:36:49;;;;;;;7.40;4.25;;;6.60;91.50;;;;;;5010474;28;20018;-63
2022/02/14 01:39:15;;;;;;;7.65;4.55;;;6.60;91.50;;;;;;5010871;28;20061;-64
2022/02/14 01:41:41;;;;;;;8.50;4.40;;;6.60;91.50;;;;;;5009440;28;20034;-62
2022/02/14 01:44:39;;;;;;;7.88;4.88;;;6.60;91.50;;;;;;5012291;28;20022;-62
2022/02/14 01:47:13;;;;;;;8.65;4.65;;;6.50;91.50;;;;;;4994305;28;20045;-63
2022/02/14 01:49:40;;;;;;;8.35;4.68;;;6.50;91.50;;;;;;4992287;28;20031;-63
2022/02/14 01:52:07;;;;;;;10.48;4.70;;;6.50;91.50;;;;;;4993801;28;20036;-63
2022/02/14 01:54:35;;;;;;;8.85;5.10;;;6.50;91.50;;;;;;4992641;28;20534;-63
2022/02/14 01:57:01;;;;;;;8.00;4.82;;;6.50;91.50;;;;;;5008968;28;20425;-63
2022/02/14 01:59:27;;;;;;;9.02;4.47;;;6.50;91.50;;;;;;5011786;28;20072;-63
2022/02/14 02:01:52;;;;;;;9.45;4.78;;;6.40;91.50;;;;;;5009995;28;20045;-63
2022/02/14 02:04:17;;;;;;;6.70;4.30;;;6.50;91.50;;;;;;5011741;28;20029;-62
2022/02/14 02:06:44;;;;;;;9.65;4.95;;;6.40;91.50;;;;;;4996480;28;20049;-63
2022/02/14 02:09:09;;;;;;;9.70;6.03;;;6.40;91.50;;;;;;4992324;28;20381;-63
2022/02/14 02:14:23;;;;;;;8.55;4.40;;;6.40;91.50;;;;;;4994802;28;20524;-64
2022/02/14 02:16:49;;;;;;;9.38;5.40;;;6.30;91.50;;;;;;4992231;28;20038;-63
2022/02/14 02:19:15;;;;;;;11.48;5.63;;;6.30;91.50;;;;;;4992235;28;20019;-63
2022/02/14 02:21:48;;;;;;;7.57;4.47;;;6.20;91.40;;;;;;4992243;28;20440;-63
2022/02/14 02:24:17;;;;;;;8.93;4.30;;;6.20;91.40;;;;;;4992056;28;20027;-63
2022/02/14 02:27:04;;;;;;;6.78;4.25;;;6.20;91.40;;;;;;4993655;28;20120;-63
2022/02/14 02:29:30;;;;;;;7.93;4.10;;;6.20;91.40;;;;;;4992213;28;20027;-63
2022/02/14 02:31:57;;;;;;;9.02;4.32;;;6.20;91.40;;;;;;5008261;28;20037;-63
2022/02/14 02:34:23;;;;;;;8.55;4.63;;;6.20;91.40;;;;;;5011706;28;20057;-63
2022/02/14 02:36:50;;;;;;;7.05;4.57;;;6.20;91.40;;;;;;5008818;28;20054;-63
2022/02/14 02:39:16;;;;;;;6.80;3.90;;;6.20;91.30;;;;;;5011494;28;20029;-63
2022/02/14 02:41:42;;;;;;;8.18;4.60;;;6.20;91.30;;;;;;4999499;28;20109;-63
2022/02/14 02:44:08;;;;;;;8.27;4.25;;;6.10;91.30;;;;;;5001866;28;20433;-63
2022/02/14 02:46:33;;;;;;;11.18;4.57;;;6.10;91.30;;;;;;5011558;28;20603;-63
2022/02/14 02:49:20;;;;;;;8.50;4.25;;;6.10;91.30;;;;;;5003137;28;20511;-63
2022/02/14 02:51:48;;;;;;;7.22;3.83;;;6.10;91.20;;;;;;5010622;28;20061;-63
2022/02/14 02:54:14;;;;;;;8.10;4.45;;;6.10;91.20;;;;;;5006832;28;20029;-63
2022/02/14 02:56:42;;;;;;;5.78;3.75;;;6.10;91.10;;;;;;5011712;28;20025;-63
2022/02/14 02:59:08;;;;;;;8.35;3.70;;;6.00;91.10;;;;;;5006200;28;20058;-63
2022/02/14 03:01:34;;;;;;;6.28;4.07;;;6.10;91.10;;;;;;5013050;28;20050;-63
2022/02/14 03:04:04;;;;;;;7.53;4.07;;;6.00;91.00;;;;;;5026209;28;20100;-63
2022/02/14 03:06:30;;;;;;;6.90;4.05;;;6.00;90.90;;;;;;5034906;28;20096;-63
2022/02/14 03:08:56;;;;;;;7.50;4.10;;;6.00;90.90;;;;;;5005238;28;20382;-63
2022/02/14 03:11:22;;;;;;;9.25;3.90;;;6.00;90.80;;;;;;5012515;28;20580;-62
2022/02/14 03:13:49;;;;;;;8.38;3.50;;;6.10;90.80;;;;;;5012140;28;20413;-63
2022/02/14 03:16:15;;;;;;;7.38;3.78;;;6.00;90.70;;;;;;5015313;28;20035;-62
2022/02/14 03:18:42;;;;;;;5.82;3.35;;;6.00;90.60;;;;;;5001505;28;20032;-63
2022/02/14 03:21:09;;;;;;;6.50;3.90;;;6.00;90.60;;;;;;4995311;28;20505;-63
2022/02/14 03:23:35;;;;;;;7.07;3.60;;;6.00;90.60;;;;;;4997579;28;20034;-63
2022/02/14 03:26:01;;;;;;;9.63;4.07;;;6.00;90.60;;;;;;4995447;28;20034;-62
2022/02/14 03:28:27;;;;;;;6.82;3.67;;;6.00;90.50;;;;;;4998688;28;20466;-62
2022/02/14 03:30:53;;;;;;;7.47;4.50;;;6.00;90.50;;;;;;4995215;28;20038;-63
2022/02/14 03:33:19;;;;;;;5.97;3.65;;;6.00;90.50;;;;;;4996106;28;20042;-64
2022/02/14 03:35:45;;;;;;;5.10;3.38;;;6.00;90.40;;;;;;4995309;28;20076;-63
2022/02/14 03:38:11;;;;;;;9.18;3.53;;;6.10;90.40;;;;;;5003301;28;20026;-63
2022/02/14 03:40:37;;;;;;;6.82;3.90;;;6.00;90.60;;;;;;5014510;28;20021;-63
2022/02/14 03:43:04;;;;;;;7.00;3.78;;;6.00;90.30;;;;;;5002095;28;20039;-63
2022/02/14 03:45:31;;;;;;;5.75;3.65;;;6.00;90.30;;;;;;5013300;28;20493;-63
2022/02/14 03:47:57;;;;;;;7.38;3.80;;;6.00;90.20;;;;;;5001906;28;20489;-63
2022/02/14 03:50:23;;;;;;;12.20;3.97;;;6.00;90.20;;;;;;5014556;28;20424;-63
2022/02/14 03:52:49;;;;;;;5.68;3.60;;;6.00;90.20;;;;;;5002039;28;20018;-63
2022/02/14 03:55:14;;;;;;;6.63;3.78;;;6.00;90.10;;;;;;5013411;28;20081;-62
2022/02/14 03:57:41;;;;;;;7.13;4.07;;;6.00;90.10;;;;;;5001757;28;20037;-62
2022/02/14 04:00:08;;;;;;;6.43;4.18;;;6.00;90.10;;;;;;5014105;28;20104;-63
2022/02/14 04:02:35;;;;;;;10.25;4.72;;;6.00;90.00;;;;;;5000380;28;20034;-62
2022/02/14 04:05:01;;;;;;;6.57;3.50;;;6.00;90.00;;;;;;4994674;28;20494;-62
2022/02/14 04:07:26;;;;;;;6.60;4.00;;;6.00;90.00;;;;;;5009532;28;20033;-62
2022/02/14 04:09:52;;;;;;;9.82;3.67;;;6.00;89.80;;;;;;5004179;28;20041;-62
2022/02/14 04:12:18;;;;;;;8.07;4.45;;;6.00;89.90;;;;;;4995229;28;20393;-62
2022/02/14 04:14:43;;;;;;;7.60;3.90;;;6.00;89.80;;;;;;5004926;28;20377;-63
2022/02/14 04:17:09;;;;;;;7.47;3.85;;;6.00;89.70;;;;;;4998686;28;20507;-62
2022/02/14 04:19:34;;;;;;;8.38;3.80;;;6.00;89.60;;;;;;4994143;28;20018;-63
2022/02/14 04:22:00;;;;;;;7.65;4.18;;;6.00;89.50;;;;;;4993244;28;20421;-63
2022/02/14 04:24:25;;;;;;;7.15;3.72;;;6.00;89.30;;;;;;4994300;28;20041;-63
2022/02/14 04:26:51;;;;;;;6.97;3.90;;;6.00;89.20;;;;;;4994467;28;20030;-63
2022/02/14 04:29:16;;;;;;;7.35;4.00;;;6.10;89.20;;;;;;5008284;28;20073;-63
2022/02/14 04:31:42;;;;;;;7.35;3.78;;;6.00;89.00;;;;;;4997540;28;20034;-63
2022/02/14 04:34:07;;;;;;;7.15;3.83;;;6.10;88.90;;;;;;5009341;28;20076;-62
2022/02/14 04:36:33;;;;;;;6.20;3.80;;;6.10;88.90;;;;;;5012563;28;20544;-63
2022/02/14 04:38:58;;;;;;;8.50;4.22;;;6.10;88.70;;;;;;5009954;28;20068;-62
2022/02/14 04:41:24;;;;;;;7.63;3.72;;;6.10;88.50;;;;;;5013575;28;20404;-62
2022/02/14 04:43:51;;;;;;;9.15;4.32;;;6.10;88.40;;;;;;5010231;28;20112;-63
2022/02/14 04:46:18;;;;;;;5.28;3.33;;;6.10;88.40;;;;;;5013651;28;20038;-62
2022/02/14 04:48:44;;;;;;;6.25;4.07;;;6.10;88.20;;;;;;5010383;28;20444;-62
2022/02/14 04:51:09;;;;;;;6.93;3.70;;;6.10;87.90;;;;;;5010951;28;20026;-62
2022/02/14 04:53:35;;;;;;;9.02;4.65;;;6.10;87.90;;;;;;5009751;28;20060;-62
2022/02/14 04:56:00;;;;;;;7.70;3.45;;;6.10;87.90;;;;;;5013312;28;20026;-62
2022/02/14 04:58:26;;;;;;;6.80;3.55;;;6.20;87.90;;;;;;5011492;28;20462;-62
2022/02/14 05:00:52;;;;;;;8.48;4.18;;;6.20;87.80;;;;;;5012055;28;20037;-62
2022/02/14 05:03:18;;;;;;;20.88;5.05;;;6.20;87.60;;;;;;5001118;28;20027;-62
2022/02/14 05:05:43;;;;;;;5.72;3.70;;;6.20;87.50;;;;;;4993937;28;20114;-62
2022/02/14 05:08:09;;;;;;;6.35;4.10;;;6.20;87.30;;;;;;5009615;28;20112;-62
2022/02/14 05:10:34;;;;;;;8.57;3.95;;;6.20;87.20;;;;;;5006452;28;20469;-62
2022/02/14 05:12:59;;;;;;;7.05;3.80;;;6.20;87.20;;;;;;5000078;28;20034;-62
2022/02/14 05:15:25;;;;;;;8.52;3.85;;;6.20;87.20;;;;;;5007896;28;20022;-62
2022/02/14 05:17:50;;;;;;;12.18;4.03;;;6.20;87.20;;;;;;4998810;28;20029;-62
2022/02/14 05:20:16;;;;;;;6.43;3.85;;;6.20;87.10;;;;;;5001589;28;20062;-62
2022/02/14 05:22:42;;;;;;;8.13;4.15;;;6.20;87.10;;;;;;4996795;28;20100;-62
2022/02/14 05:25:07;;;;;;;10.52;4.32;;;6.20;86.90;;;;;;5002470;28;20493;-63
2022/02/14 05:27:33;;;;;;;6.88;4.10;;;6.20;86.90;;;;;;5014837;28;20052;-63
2022/02/14 05:29:58;;;;;;;8.77;4.03;;;6.20;86.90;;;;;;4993747;28;20368;-62
2022/02/14 05:32:24;;;;;;;7.50;4.80;;;6.20;86.90;;;;;;5008159;28;20034;-63
2022/02/14 05:34:50;;;;;;;7.70;4.07;;;6.20;86.90;;;;;;4996337;28;20033;-62
2022/02/14 05:37:15;;;;;;;10.52;5.93;;;6.10;86.90;;;;;;5009599;28;20049;-63
2022/02/14 05:39:44;;;;;;;7.63;4.45;;;6.20;86.80;;;;;;5007924;28;20544;-62
2022/02/14 05:42:11;;;;;;;9.98;5.10;;;6.20;86.80;;;;;;4993489;28;20172;-63
2022/02/14 05:44:37;;;;;;;7.72;4.75;;;6.20;86.80;;;;;;4993034;28;20469;-62
2022/02/14 05:47:02;;;;;;;8.40;4.75;;;6.20;86.90;;;;;;4992236;28;20117;-62
2022/02/14 05:49:28;;;;;;;8.85;4.82;;;6.20;86.90;;;;;;5010459;28;20026;-62
2022/02/14 05:51:53;;;;;;;9.00;5.15;;;6.10;86.80;;;;;;5012028;28;20034;-62
2022/02/14 05:54:19;;;;;;;10.13;5.53;;;6.10;86.80;;;;;;5003311;28;20030;-63
2022/02/14 05:56:45;;;;;;;7.90;4.68;;;6.10;86.90;;;;;;4992793;28;20025;-62
2022/02/14 05:59:10;;;;;;;10.13;5.15;;;6.10;86.90;;;;;;4993794;28;20036;-62
2022/02/14 06:01:36;;;;;;;9.95;5.30;;;6.10;86.90;;;;;;4992037;28;20054;-63
2022/02/14 06:04:01;;;;;;;8.73;4.55;;;6.00;86.90;;;;;;5002525;28;20031;-63
2022/02/14 06:06:27;;;;;;;11.43;5.25;;;6.00;86.90;;;;;;4992383;28;20034;-63
2022/02/14 06:08:53;;;;;;;9.70;5.57;;;6.00;86.90;;;;;;5003736;28;20037;-62
2022/02/14 06:11:18;;;;;;;11.93;5.13;;;6.00;87.00;;;;;;4992438;28;20473;-62
2022/02/14 06:13:44;;;;;;;9.90;5.43;;;6.00;87.00;;;;;;5003155;28;20022;-62
2022/02/14 06:16:09;;;;;;;12.15;5.07;;;6.00;87.00;;;;;;4992222;28;20027;-62
2022/02/14 06:18:35;;;;;;;7.78;4.88;;;6.00;86.90;;;;;;4991975;28;20026;-63
2022/02/14 06:21:00;;;;;;;7.88;4.97;;;6.00;86.90;;;;;;4992771;28;20094;-65
2022/02/14 06:23:27;;;;;;;11.40;4.80;;;6.00;86.80;;;;;;5002785;28;20025;-63
2022/02/14 06:25:52;;;;;;;10.23;4.53;;;6.00;86.80;;;;;;5005718;28;20068;-63
2022/02/14 06:28:18;;;;;;;8.90;5.07;;;6.00;86.80;;;;;;4995427;28;20038;-63
2022/02/14 06:30:46;;;;;;;11.35;5.28;;;6.00;86.90;;;;;;4996366;28;20029;-63
2022/02/14 06:33:15;;;;;;;8.88;4.57;;;6.10;86.90;;;;;;5000735;28;20034;-63
2022/02/14 06:35:41;;;;;;;8.15;5.57;;;6.00;86.80;;;;;;4991195;28;20023;-62
2022/02/14 06:38:07;;;;;;;9.82;4.65;;;6.10;86.90;;;;;;4998947;28;20022;-63
2022/02/14 06:40:32;;;;;;;9.75;5.32;;;6.10;86.70;;;;;;5005876;28;20053;-63
2022/02/14 06:42:58;;;;;;;11.80;6.75;;;6.10;86.60;;;;;;4996765;28;20061;-62
2022/02/14 06:45:23;;;;;;;9.70;5.47;;;6.10;86.70;;;;;;5006569;28;20129;-63
2022/02/14 06:47:49;;;;;;;7.88;5.15;;;6.00;86.70;;;;;;5001722;28;20496;-63
2022/02/14 06:50:17;;;;;;;9.50;4.90;;;6.10;86.60;;;;;;5011379;28;20517;-63
2022/02/14 06:52:43;;;;;;;9.68;4.97;;;6.10;86.70;;;;;;5017668;28;20018;-62
2022/02/14 06:55:08;;;;;;;8.25;4.97;;;6.10;86.70;;;;;;4991613;28;20081;-63
2022/02/14 06:57:36;;;;;;;11.00;5.10;;;6.10;86.60;;;;;;4994756;28;20525;-63
2022/02/14 07:00:04;;;;;;;7.45;4.47;;;6.10;87.00;;;;;;4991287;28;20041;-62
2022/02/14 07:02:29;;;;;;;11.75;5.45;;;6.20;86.50;;;;;;4994652;28;20030;-62
2022/02/14 07:04:55;;;;;;;9.07;4.82;;;6.20;86.40;;;;;;5010248;28;20053;-63
2022/02/14 07:07:20;;;;;;;11.05;5.72;;;6.20;86.40;;;;;;5008873;28;20041;-63
2022/02/14 07:09:47;;;;;;;8.40;5.03;;;6.20;86.30;;;;;;5011265;28;20030;-63
2022/02/14 07:12:12;;;;;;;10.75;5.00;;;6.20;86.20;;;;;;5007664;28;20034;-63
2022/02/14 07:14:38;;;;;;;9.23;5.93;;;6.30;86.20;;;;;;4991217;28;20294;-62
2022/02/14 07:17:03;;;;;;;8.05;4.47;;;6.20;86.10;;;;;;4991521;28;20062;-63
2022/02/14 07:19:29;;;;;;;11.18;5.25;;;6.30;86.30;;;;;;5005540;28;20076;-63
2022/02/14 07:21:54;;;;;;;7.35;4.85;;;6.30;86.20;;;;;;4991646;28;20426;-64
2022/02/14 07:24:20;;;;;;;8.80;4.97;;;6.30;86.30;;;;;;4991654;28;20116;-64
2022/02/14 07:26:45;;;;;;;10.02;6.03;;;6.30;86.70;;;;;;4990022;28;20038;-63
2022/02/14 07:29:11;;;;;;;11.82;5.13;;;6.40;86.40;;;;;;4999086;28;20474;-63
2022/02/14 07:31:36;;;;;;;9.23;5.25;;;6.50;86.40;;;;;;4991148;28;20045;-64
2022/02/14 07:34:02;;;;;;;11.18;5.03;;;6.40;86.40;;;;;;5005779;28;20072;-64
2022/02/14 07:36:28;;;;;;;10.40;5.35;;;6.60;87.60;;;;;;5011058;28;20473;-64
2022/02/14 07:38:53;;;;;;;7.93;4.75;;;6.60;87.20;;;;;;5009519;28;20069;-63
2022/02/14 07:41:19;;;;;;;13.35;5.80;;;6.60;87.40;;;;;;4991492;28;20024;-62
2022/02/14 07:43:45;;;;;;;8.70;5.28;;;6.60;87.10;;;;;;4993720;28;20030;-62
2022/02/14 07:46:10;;;;;;;9.15;5.45;;;6.70;87.50;;;;;;4991846;28;20141;-62
2022/02/14 07:48:37;;;;;;;11.02;5.13;;;6.70;87.10;;;;;;4997639;28;20030;-62
2022/02/14 07:51:03;;;;;;;10.35;5.47;;;6.70;87.20;;;;;;5005661;28;20044;-62
2022/02/14 07:53:29;;;;;;;8.98;4.70;;;6.80;86.80;;;;;;4998025;28;20027;-63
2022/02/14 07:55:54;;;;;;;9.07;5.15;;;6.80;86.50;;;;;;5005502;28;20033;-63
2022/02/14 07:58:20;;;;;;;10.07;4.78;;;6.90;86.80;;;;;;4998157;28;20393;-62
2022/02/14 08:00:45;;;;;;;9.30;4.85;;;6.90;86.80;;;;;;4994565;28;20050;-62
2022/02/14 08:03:11;;;;;;;7.57;5.43;;;7.00;86.30;;;;;;5004373;28;20022;-63
2022/02/14 08:05:36;;;;;;;8.35;4.72;;;7.00;85.90;;;;;;5012736;28;20050;-63
2022/02/14 08:08:02;;;;;;;9.80;4.75;;;7.00;85.90;;;;;;5001454;28;20042;-63
2022/02/14 08:10:28;;;;;;;12.38;4.97;;;7.00;86.00;;;;;;4994440;28;20497;-63
2022/02/14 08:12:54;;;;;;;7.70;4.45;;;7.00;86.00;;;;;;4999332;28;20032;-63
2022/02/14 08:15:19;;;;;;;6.20;4.70;;;7.00;85.80;;;;;;5004823;28;20030;-64
2022/02/14 08:17:45;;;;;;;7.32;4.22;;;7.10;85.60;;;;;;5007561;28;20116;-63
2022/02/14 08:20:11;;;;;;;11.82;5.45;;;7.10;85.20;;;;;;4998854;28;20031;-63
2022/02/14 08:22:36;;;;;;;8.20;4.63;;;7.10;85.00;;;;;;5008704;28;20029;-63
2022/02/14 08:25:02;;;;;;;9.20;4.47;;;7.20;85.10;;;;;;5002318;28;20049;-63
2022/02/14 08:27:28;;;;;;;9.82;4.80;;;7.20;84.80;;;;;;4996345;28;20470;-63
2022/02/14 08:29:54;;;;;;;9.43;4.72;;;7.30;84.90;;;;;;5004524;28;20022;-64
2022/02/14 08:32:20;;;;;;;8.85;4.35;;;7.30;85.10;;;;;;5002739;28;20033;-64
2022/02/14 08:34:45;;;;;;;7.97;4.97;;;7.30;84.90;;;;;;5006509;28;20023;-63
2022/02/14 08:37:12;;;;;;;8.38;4.32;;;7.30;84.40;;;;;;4994351;28;20359;-63
2022/02/14 08:39:40;;;;;;;8.10;4.63;;;7.40;84.70;;;;;;4994142;28;20034;-63
2022/02/14 08:42:07;;;;;;;9.05;4.45;;;7.40;84.20;;;;;;4993501;28;20097;-64
2022/02/14 08:44:33;;;;;;;8.43;4.47;;;7.40;84.10;;;;;;5010190;28;20030;-63
2022/02/14 08:46:59;;;;;;;9.48;4.70;;;7.40;84.00;;;;;;5007413;28;20026;-64
2022/02/14 08:49:25;;;;;;;11.70;4.60;;;7.50;83.90;;;;;;5014066;28;20112;-64
2022/02/14 08:51:54;;;;;;;9.05;4.85;;;7.50;84.00;;;;;;5011047;28;20025;-63
2022/02/14 08:54:20;;;;;;;9.93;4.47;;;7.60;84.20;;;;;;5008109;28;20036;-63
2022/02/14 08:56:45;;;;;;;8.02;4.22;;;7.60;83.80;;;;;;5012051;28;20735;-63
2022/02/14 08:59:13;;;;;;;7.68;4.47;;;7.60;83.90;;;;;;5007400;28;20038;-64
2022/02/14 09:01:39;;;;;;;8.07;4.30;;;7.70;83.90;;;;;;5011124;28;20050;-64
2022/02/14 09:04:04;;;;;;;8.15;4.60;;;7.80;83.80;;;;;;5011427;28;20552;-64
2022/02/14 09:06:48;;;;;;;8.13;4.80;;;7.80;83.60;;;;;;5011654;28;20132;-63
2022/02/14 09:09:34;;;;;;;8.18;4.03;;;7.90;83.40;;;;;;5002045;28;20029;-63
2022/02/14 09:12:22;;;;;;;9.80;4.05;;;7.90;83.10;;;;;;5002699;28;20040;-63
2022/02/14 09:15:09;;;;;;;8.77;4.40;;;8.00;82.80;;;;;;5007943;28;20034;-63
2022/02/14 09:17:54;;;;;;;5.55;3.47;;;8.10;82.50;;;;;;4999131;28;20057;-63
2022/02/14 09:20:41;;;;;;;6.32;3.92;;;8.20;82.40;;;;;;5002150;28;20049;-63
2022/02/14 09:23:27;;;;;;;7.57;3.97;;;8.30;82.00;;;;;;5001962;28;20521;-63
2022/02/14 09:26:14;;;;;;;4.43;3.08;;;8.30;81.40;;;;;;5002516;28;20037;-63
2022/02/14 09:28:59;;;;;;;8.90;4.65;;;8.50;81.30;;;;;;5000716;28;20565;-63
2022/02/14 09:31:45;;;;;;;7.32;3.25;;;8.50;80.90;;;;;;4991320;28;20026;-63
2022/02/14 09:34:31;;;;;;;9.27;3.40;;;8.60;81.00;;;;;;5026667;28;20033;-63
2022/02/14 09:37:17;;;;;;;6.68;3.70;;;8.60;80.70;;;;;;5025593;28;20040;-64
2022/02/14 09:40:04;;;;;;;7.05;3.72;;;8.70;80.40;;;;;;5029740;28;20400;-64
2022/02/14 09:42:32;;;;;;;6.38;3.95;;;8.80;79.80;;;;;;5015498;28;20673;-64
2022/02/14 09:44:57;;;;;;;7.68;3.38;;;8.90;79.10;;;;;;5032752;28;20036;-64
2022/02/14 09:47:26;;;;;;;4.95;3.15;;;8.90;79.10;;;;;;5023869;28;20022;-64
2022/02/14 09:49:55;;;;;;;7.28;3.30;;;9.00;78.80;;;;;;5018482;28;20378;-64
2022/02/14 09:52:22;;;;;;;9.07;3.92;;;9.00;78.70;;;;;;5034488;28;20345;-64
2022/02/14 09:54:47;;;;;;;6.53;2.90;;;9.10;77.70;;;;;;5031170;28;20036;-63
2022/02/14 09:57:12;;;;;;;9.80;3.42;;;9.20;77.50;;;;;;5007037;28;20024;-63
2022/02/14 09:59:41;;;;;;;7.03;3.30;;;9.30;77.40;;;;;;5017675;28;20501;-63
2022/02/14 10:02:26;;;;;;;6.38;3.42;;;9.30;77.40;;;;;;5039416;28;20060;-63
2022/02/14 10:05:18;;;;;;;5.47;3.10;;;9.40;77.00;;;;;;5018595;28;20127;-64
2022/02/14 10:07:52;;;;;;;8.63;3.15;;;9.50;76.90;;;;;;5015605;28;20141;-64
2022/02/14 10:10:17;;;;;;;8.05;3.70;;;9.50;77.30;;;;;;5032218;28;20032;-64
2022/02/14 10:12:49;;;;;;;5.05;3.05;;;9.70;77.60;;;;;;5027663;28;20033;-63
2022/02/14 10:15:16;;;;;;;6.78;3.00;;;9.70;77.60;;;;;;5025697;28;20567;-63
2022/02/14 10:17:47;;;;;;;4.22;3.00;;;9.70;76.70;;;;;;5016979;28;20032;-66
2022/02/14 10:20:15;;;;;;;6.50;3.15;;;9.80;76.30;;;;;;5026923;28;20030;-65
2022/02/14 10:22:57;;;;;;;5.07;3.10;;;9.90;75.80;;;;;;5022362;28;20469;-65
2022/02/14 10:25:27;;;;;;;7.32;3.50;;;10.00;75.90;;;;;;5029951;28;20057;-64
2022/02/14 10:27:53;;;;;;;6.88;4.00;;;10.00;75.20;;;;;;5027523;28;20481;-65
2022/02/14 10:30:18;;;;;;;4.60;2.88;;;10.10;75.50;;;;;;5017040;28;20033;-64
2022/02/14 10:32:50;;;;;;;5.85;3.10;;;10.20;75.00;;;;;;5017433;28;20022;-65
2022/02/14 10:35:16;;;;;;;5.70;3.08;;;10.20;74.80;;;;;;5017533;28;20025;-64
2022/02/14 10:37:43;;;;;;;7.32;3.10;;;10.30;74.20;;;;;;5018363;28;20044;-64
2022/02/14 10:40:10;;;;;;;10.32;3.17;;;10.30;73.60;;;;;;5030063;28;20033;-64
2022/02/14 10:42:37;;;;;;;7.55;2.95;;;10.40;74.00;;;;;;5025173;28;20099;-64
2022/02/14 10:45:07;;;;;;;4.40;3.08;;;10.40;73.40;;;;;;5018210;28;20037;-64
2022/02/14 10:47:35;;;;;;;9.50;3.20;;;10.50;72.90;;;;;;5015560;28;20057;-63
2022/02/14 10:50:15;;;;;;;10.18;3.10;;;10.60;73.00;;;;;;5028132;28;21632;-65
2022/02/14 10:52:46;;;;;;;6.38;2.63;;;10.60;72.30;;;;;;5026594;28;20029;-64
2022/02/14 10:55:11;;;;;;;6.43;2.70;;;10.70;72.60;;;;;;5027508;28;20077;-64
2022/02/14 10:57:40;;;;;;;7.30;3.60;;;10.80;72.90;;;;;;5023425;28;20057;-63
2022/02/14 11:00:20;;;;;;;4.85;2.58;;;10.90;72.60;;;;;;5045300;28;20480;-62
2022/02/14 11:02:50;;;;;;;8.27;2.53;;;10.90;72.80;;;;;;5024394;28;20049;-63
2022/02/14 11:05:17;;;;;;;7.38;2.95;;;11.00;72.70;;;;;;5020111;28;20083;-62
2022/02/14 11:07:43;;;;;;;4.97;2.78;;;11.10;72.20;;;;;;5024076;28;20034;-62
2022/02/14 11:10:14;;;;;;;7.97;2.85;;;11.10;71.80;;;;;;5021927;28;20029;-63
2022/02/14 11:12:48;;;;;;;5.05;2.90;;;11.20;71.70;;;;;;5027227;28;20088;-62
2022/02/14 11:15:14;;;;;;;5.90;2.85;;;11.20;71.50;;;;;;5014512;28;20495;-63
2022/02/14 11:17:48;;;;;;;5.55;3.17;;;11.30;71.40;;;;;;5019430;28;20115;-63
2022/02/14 11:20:15;;;;;;;4.72;3.00;;;11.30;71.20;;;;;;5041768;28;20033;-63
2022/02/14 11:22:46;;;;;;;4.88;2.72;;;11.40;71.40;;;;;;5022794;28;20030;-63
2022/02/14 11:25:25;;;;;;;6.05;3.10;;;11.40;70.90;;;;;;5033342;28;20175;-63
2022/02/14 11:28:06;;;;;;;5.07;2.80;;;11.50;71.00;;;;;;5052406;28;20020;-63
2022/02/14 11:30:32;;;;;;;10.98;3.75;;;11.60;70.80;;;;;;5054204;28;20697;-64
2022/02/14 11:33:06;;;;;;;6.82;3.03;;;11.60;70.60;;;;;;5052013;28;20080;-64
2022/02/14 11:35:31;;;;;;;6.13;2.92;;;11.70;70.40;;;;;;5054088;28;20032;-63
2022/02/14 11:38:00;;;;;;;5.70;2.83;;;11.70;70.50;;;;;;5051806;28;20029;-64
2022/02/14 11:40:27;;;;;;;6.15;3.15;;;11.80;70.70;;;;;;5014312;28;20493;-63
2022/02/14 11:43:15;;;;;;;6.10;3.13;;;11.90;70.50;;;;;;5014897;28;20105;-63
2022/02/14 11:45:42;;;;;;;4.93;2.58;;;11.90;70.20;;;;;;5014435;28;20493;-64
2022/02/14 11:48:27;;;;;;;5.88;2.83;;;11.90;70.20;;;;;;5041529;28;20037;-64
2022/02/14 11:51:16;;;;;;;7.13;2.95;;;12.00;70.10;;;;;;5046618;28;20030;-64
2022/02/14 11:53:47;;;;;;;14.35;5.13;;;12.00;70.10;;;;;;5047232;28;20097;-63
2022/02/14 11:56:22;;;;;;;5.80;3.30;;;12.00;70.00;;;;;;5059406;28;20036;-63
2022/02/14 11:58:57;;;;;;;;;;;12.10;69.80;;;;;;5050339;28;20021;-63
2022/02/14 12:01:23;;;;;;;5.30;2.80;;;12.10;70.20;;;;;;5073362;28;19927;-63
2022/02/14 12:03:52;;;;;;;6.93;2.92;;;12.20;70.30;;;;;;5071791;28;20115;-64
2022/02/14 12:06:18;;;;;;;4.28;2.72;;;12.20;69.80;;;;;;5073176;28;20032;-63
2022/02/14 12:09:00;;;;;;;9.45;4.20;;;12.20;69.80;;;;;;5070531;28;20431;-63
2022/02/14 12:11:48;;;;;;;6.40;2.63;;;12.30;69.60;;;;;;5067509;28;20043;-64
2022/02/14 12:14:20;;;;;;;6.50;3.10;;;12.30;69.70;;;;;;5046190;28;20020;-64
2022/02/14 12:22:46;;;;;;;4.50;2.70;;;12.40;69.10;;;;;;5073192;28;20035;-63
2022/02/14 12:25:12;;;;;;;7.90;3.67;;;12.50;68.70;;;;;;5071147;28;20131;-64
2022/02/14 12:27:38;;;;;;;6.25;3.00;;;12.50;69.20;;;;;;5068788;28;20104;-64
2022/02/14 12:30:20;;;;;;;5.15;3.17;;;12.50;69.40;;;;;;5044307;28;20112;-64
2022/02/14 12:33:05;;;;;;;8.02;4.05;;;12.60;69.30;;;;;;5038495;28;20029;-64
2022/02/14 12:35:33;;;;;;;5.40;3.40;;;12.60;69.10;;;;;;5049578;28;20028;-63
2022/02/14 12:37:59;;;;;;;6.25;3.13;;;12.60;69.10;;;;;;5042338;28;20041;-63
2022/02/14 12:40:24;;;;;;;4.35;2.85;;;12.60;69.10;;;;;;5046605;28;20013;-63
2022/02/14 12:42:59;;;;;;;4.22;3.10;;;12.70;69.00;;;;;;5046184;28;20481;-64
2022/02/14 12:45:25;;;;;;;4.13;2.72;;;12.70;68.90;;;;;;5060456;28;20041;-63
2022/02/14 12:47:50;;;;;;;4.80;3.08;;;12.80;68.70;;;;;;5049301;28;20068;-64
2022/02/14 12:50:19;;;;;;;5.72;2.92;;;12.80;68.60;;;;;;5057557;28;20095;-64
2022/02/14 12:52:47;;;;;;;5.20;3.17;;;12.90;68.70;;;;;;5044605;28;20149;-64
2022/02/14 12:55:14;;;;;;;8.27;2.92;;;12.80;68.50;;;;;;5045285;28;20029;-64
2022/02/14 12:57:43;;;;;;;6.82;3.05;;;12.90;68.60;;;;;;5045922;28;20084;-64
2022/02/14 13:00:25;;;;;;;8.15;2.78;;;12.90;68.40;;;;;;5054073;28;20033;-64
2022/02/14 13:02:52;;;;;;;11.73;2.70;;;12.90;68.60;;;;;;5042184;28;20037;-63
2022/02/14 13:05:18;;;;;;;5.45;3.00;;;13.00;68.50;;;;;;5058929;28;20071;-64
2022/02/14 13:07:44;;;;;;;5.10;2.90;;;13.00;68.50;;;;;;5033596;28;20038;-64